sensor_id;sensor_type;location;lat;lon;timestamp;P1;durP1;ratioP1;P2;durP2;ratioP2
25687;SDS011;17407;51.120;3.702;2024-03-08T06:55:21;54.55;;;25.17;;
25687;SDS011;17407;51.120;3.702;2024-03-08T06:57:47;44.92;;;25.65;;
25687;SDS011;17407;51.120;3.702;2024-03-08T07:00:13;43.83;;;24.50;;
25687;SDS011;17407;51.120;3.702;2024-03-08T07:02:43;45.40;;;25.88;;
25687;SDS011;17407;51.120;3.702;2024-03-08T07:05:14;45.00;;;26.05;;
25687;SDS011;17407;51.120;3.702;2024-03-08T07:07:41;44.08;;;26.85;;
25687;SDS011;17407;51.120;3.702;2024-03-08T07:10:08;41.83;;;23.88;;
25687;SDS011;17407;51.120;3.702;2024-03-08T07:12:36;42.28;;;25.63;;
25687;SDS011;17407;51.120;3.702;2024-03-08T07:15:04;46.83;;;26.77;;
25687;SDS011;17407;51.120;3.702;2024-03-08T07:17:30;48.47;;;25.40;;
25687;SDS011;17407;51.120;3.702;2024-03-08T07:19:59;39.28;;;24.10;;
25687;SDS011;17407;51.120;3.702;2024-03-08T07:22:32;42.58;;;24.42;;
25687;SDS011;17407;51.120;3.702;2024-03-08T07:24:58;49.08;;;24.98;;
25687;SDS011;17407;51.120;3.702;2024-03-08T07:27:45;42.42;;;25.48;;
25687;SDS011;17407;51.120;3.702;2024-03-08T07:30:11;42.17;;;24.23;;
25687;SDS011;17407;51.120;3.702;2024-03-08T07:32:37;44.22;;;24.20;;
25687;SDS011;17407;51.120;3.702;2024-03-08T07:35:03;40.03;;;25.92;;
25687;SDS011;17407;51.120;3.702;2024-03-08T07:37:29;42.17;;;24.00;;
25687;SDS011;17407;51.120;3.702;2024-03-08T07:39:56;43.40;;;25.23;;
25687;SDS011;17407;51.120;3.702;2024-03-08T07:42:23;42.30;;;25.50;;
25687;SDS011;17407;51.120;3.702;2024-03-08T07:44:49;43.63;;;25.50;;
25687;SDS011;17407;51.120;3.702;2024-03-08T07:47:15;37.53;;;23.92;;
25687;SDS011;17407;51.120;3.702;2024-03-08T07:49:42;40.40;;;24.65;;
25687;SDS011;17407;51.120;3.702;2024-03-08T07:52:09;38.33;;;24.60;;
25687;SDS011;17407;51.120;3.702;2024-03-08T07:54:40;43.70;;;24.48;;
25687;SDS011;17407;51.120;3.702;2024-03-08T07:57:06;40.80;;;24.63;;
25687;SDS011;17407;51.120;3.702;2024-03-08T07:59:32;39.40;;;24.38;;
25687;SDS011;17407;51.120;3.702;2024-03-08T08:01:58;40.72;;;24.42;;
25687;SDS011;17407;51.120;3.702;2024-03-08T08:04:24;49.28;;;26.35;;
25687;SDS011;17407;51.120;3.702;2024-03-08T08:06:51;39.03;;;24.48;;
25687;SDS011;17407;51.120;3.702;2024-03-08T08:09:17;42.85;;;24.23;;
25687;SDS011;17407;51.120;3.702;2024-03-08T08:11:53;39.72;;;24.13;;
25687;SDS011;17407;51.120;3.702;2024-03-08T08:14:22;40.58;;;23.80;;
25687;SDS011;17407;51.120;3.702;2024-03-08T08:16:48;43.58;;;25.55;;
25687;SDS011;17407;51.120;3.702;2024-03-08T08:19:17;38.85;;;24.73;;
25687;SDS011;17407;51.120;3.702;2024-03-08T08:21:43;42.70;;;24.88;;
25687;SDS011;17407;51.120;3.702;2024-03-08T08:24:09;39.10;;;24.13;;
25687;SDS011;17407;51.120;3.702;2024-03-08T08:26:36;43.10;;;24.52;;
25687;SDS011;17407;51.120;3.702;2024-03-08T08:29:01;38.55;;;23.90;;
25687;SDS011;17407;51.120;3.702;2024-03-08T08:31:27;35.33;;;22.77;;
25687;SDS011;17407;51.120;3.702;2024-03-08T08:33:53;39.40;;;22.75;;
25687;SDS011;17407;51.120;3.702;2024-03-08T08:36:23;38.58;;;23.15;;
25687;SDS011;17407;51.120;3.702;2024-03-08T08:38:49;38.20;;;23.95;;
25687;SDS011;17407;51.120;3.702;2024-03-08T08:41:15;41.28;;;25.30;;
25687;SDS011;17407;51.120;3.702;2024-03-08T08:43:42;37.80;;;21.90;;
25687;SDS011;17407;51.120;3.702;2024-03-08T08:46:11;42.60;;;24.83;;
25687;SDS011;17407;51.120;3.702;2024-03-08T08:48:39;39.47;;;23.15;;
25687;SDS011;17407;51.120;3.702;2024-03-08T08:51:10;39.63;;;23.70;;
25687;SDS011;17407;51.120;3.702;2024-03-08T08:53:41;36.92;;;21.90;;
25687;SDS011;17407;51.120;3.702;2024-03-08T08:56:12;37.63;;;22.90;;
25687;SDS011;17407;51.120;3.702;2024-03-08T08:58:40;44.95;;;22.98;;
25687;SDS011;17407;51.120;3.702;2024-03-08T09:01:09;37.47;;;23.52;;
25687;SDS011;17407;51.120;3.702;2024-03-08T09:03:35;39.13;;;22.33;;
25687;SDS011;17407;51.120;3.702;2024-03-08T09:06:03;40.53;;;23.65;;
25687;SDS011;17407;51.120;3.702;2024-03-08T09:08:29;37.30;;;23.60;;
25687;SDS011;17407;51.120;3.702;2024-03-08T09:10:55;38.80;;;22.85;;
25687;SDS011;17407;51.120;3.702;2024-03-08T09:13:21;37.08;;;22.23;;
25687;SDS011;17407;51.120;3.702;2024-03-08T09:15:46;35.08;;;21.40;;
25687;SDS011;17407;51.120;3.702;2024-03-08T09:18:12;38.83;;;22.52;;
25687;SDS011;17407;51.120;3.702;2024-03-08T09:20:38;32.42;;;21.33;;
25687;SDS011;17407;51.120;3.702;2024-03-08T09:23:06;35.17;;;21.52;;
25687;SDS011;17407;51.120;3.702;2024-03-08T09:25:33;36.60;;;22.25;;
25687;SDS011;17407;51.120;3.702;2024-03-08T09:27:59;38.70;;;22.10;;
25687;SDS011;17407;51.120;3.702;2024-03-08T09:30:25;32.60;;;21.27;;
25687;SDS011;17407;51.120;3.702;2024-03-08T09:32:50;34.08;;;21.92;;
25687;SDS011;17407;51.120;3.702;2024-03-08T09:35:16;32.95;;;21.15;;
25687;SDS011;17407;51.120;3.702;2024-03-08T09:37:42;35.05;;;22.42;;
25687;SDS011;17407;51.120;3.702;2024-03-08T09:40:08;37.53;;;21.63;;
25687;SDS011;17407;51.120;3.702;2024-03-08T09:42:40;36.30;;;21.48;;
25687;SDS011;17407;51.120;3.702;2024-03-08T09:45:10;34.60;;;21.45;;
25687;SDS011;17407;51.120;3.702;2024-03-08T09:47:40;32.40;;;21.50;;
25687;SDS011;17407;51.120;3.702;2024-03-08T09:50:07;34.30;;;20.73;;
25687;SDS011;17407;51.120;3.702;2024-03-08T09:52:37;37.08;;;20.67;;
25687;SDS011;17407;51.120;3.702;2024-03-08T09:55:06;33.60;;;21.33;;
25687;SDS011;17407;51.120;3.702;2024-03-08T09:57:32;33.67;;;21.92;;
25687;SDS011;17407;51.120;3.702;2024-03-08T09:59:59;31.85;;;19.98;;
25687;SDS011;17407;51.120;3.702;2024-03-08T10:02:24;31.45;;;18.35;;
25687;SDS011;17407;51.120;3.702;2024-03-08T10:04:51;29.67;;;19.92;;
25687;SDS011;17407;51.120;3.702;2024-03-08T10:07:18;30.00;;;19.02;;
25687;SDS011;17407;51.120;3.702;2024-03-08T10:09:44;32.20;;;21.20;;
25687;SDS011;17407;51.120;3.702;2024-03-08T10:12:15;27.77;;;18.50;;
25687;SDS011;17407;51.120;3.702;2024-03-08T10:14:42;30.95;;;19.02;;
25687;SDS011;17407;51.120;3.702;2024-03-08T10:17:08;33.15;;;20.38;;
25687;SDS011;17407;51.120;3.702;2024-03-08T10:19:34;29.50;;;19.30;;
25687;SDS011;17407;51.120;3.702;2024-03-08T10:22:00;32.25;;;20.63;;
25687;SDS011;17407;51.120;3.702;2024-03-08T10:24:26;33.03;;;20.65;;
25687;SDS011;17407;51.120;3.702;2024-03-08T10:26:52;26.77;;;18.25;;
25687;SDS011;17407;51.120;3.702;2024-03-08T10:29:19;30.10;;;20.30;;
25687;SDS011;17407;51.120;3.702;2024-03-08T10:31:45;31.02;;;19.40;;
25687;SDS011;17407;51.120;3.702;2024-03-08T10:34:11;27.02;;;18.90;;
25687;SDS011;17407;51.120;3.702;2024-03-08T10:36:37;32.42;;;18.63;;
25687;SDS011;17407;51.120;3.702;2024-03-08T10:39:07;29.65;;;19.50;;
25687;SDS011;17407;51.120;3.702;2024-03-08T10:41:47;25.98;;;17.85;;
25687;SDS011;17407;51.120;3.702;2024-03-08T10:47:02;27.27;;;18.48;;
25687;SDS011;17407;51.120;3.702;2024-03-08T10:49:31;27.83;;;18.55;;
25687;SDS011;17407;51.120;3.702;2024-03-08T10:51:59;25.60;;;17.27;;
25687;SDS011;17407;51.120;3.702;2024-03-08T10:54:29;27.00;;;18.40;;
25687;SDS011;17407;51.120;3.702;2024-03-08T10:56:57;29.48;;;18.75;;
25687;SDS011;17407;51.120;3.702;2024-03-08T10:59:23;27.05;;;16.15;;
25687;SDS011;17407;51.120;3.702;2024-03-08T11:01:52;28.15;;;18.40;;
25687;SDS011;17407;51.120;3.702;2024-03-08T11:04:18;30.00;;;16.98;;
25687;SDS011;17407;51.120;3.702;2024-03-08T11:06:47;28.10;;;17.27;;
25687;SDS011;17407;51.120;3.702;2024-03-08T11:09:34;26.63;;;18.38;;
25687;SDS011;17407;51.120;3.702;2024-03-08T11:15:01;21.20;;;15.50;;
25687;SDS011;17407;51.120;3.702;2024-03-08T11:20:02;24.45;;;16.27;;
25687;SDS011;17407;51.120;3.702;2024-03-08T11:22:40;26.90;;;17.40;;
25687;SDS011;17407;51.120;3.702;2024-03-08T11:25:10;28.17;;;18.52;;
25687;SDS011;17407;51.120;3.702;2024-03-08T11:28:11;27.00;;;19.00;;
25687;SDS011;17407;51.120;3.702;2024-03-08T11:30:45;21.20;;;15.63;;
25687;SDS011;17407;51.120;3.702;2024-03-08T11:33:16;21.67;;;15.85;;
25687;SDS011;17407;51.120;3.702;2024-03-08T11:35:42;22.08;;;15.63;;
25687;SDS011;17407;51.120;3.702;2024-03-08T11:38:10;25.13;;;17.30;;
25687;SDS011;17407;51.120;3.702;2024-03-08T11:40:38;25.70;;;17.42;;
25687;SDS011;17407;51.120;3.702;2024-03-08T11:43:05;24.77;;;16.55;;
25687;SDS011;17407;51.120;3.702;2024-03-08T11:45:33;28.05;;;17.52;;
25687;SDS011;17407;51.120;3.702;2024-03-08T11:48:04;24.52;;;17.00;;
25687;SDS011;17407;51.120;3.702;2024-03-08T11:50:30;21.50;;;15.68;;
25687;SDS011;17407;51.120;3.702;2024-03-08T11:53:04;23.48;;;15.77;;
25687;SDS011;17407;51.120;3.702;2024-03-08T11:55:30;24.42;;;18.17;;
25687;SDS011;17407;51.120;3.702;2024-03-08T11:58:03;28.02;;;17.27;;
25687;SDS011;17407;51.120;3.702;2024-03-08T12:00:30;25.33;;;16.30;;
25687;SDS011;17407;51.120;3.702;2024-03-08T12:03:07;25.70;;;17.80;;
25687;SDS011;17407;51.120;3.702;2024-03-08T12:05:34;26.73;;;17.00;;
25687;SDS011;17407;51.120;3.702;2024-03-08T12:08:01;22.55;;;15.45;;
25687;SDS011;17407;51.120;3.702;2024-03-08T12:10:28;23.17;;;16.40;;
25687;SDS011;17407;51.120;3.702;2024-03-08T12:12:54;22.42;;;16.30;;
25687;SDS011;17407;51.120;3.702;2024-03-08T12:15:24;18.60;;;14.02;;
25687;SDS011;17407;51.120;3.702;2024-03-08T12:17:51;21.27;;;14.77;;
25687;SDS011;17407;51.120;3.702;2024-03-08T12:20:18;25.55;;;16.65;;
25687;SDS011;17407;51.120;3.702;2024-03-08T12:22:52;22.48;;;14.20;;
25687;SDS011;17407;51.120;3.702;2024-03-08T12:25:19;21.30;;;15.13;;
25687;SDS011;17407;51.120;3.702;2024-03-08T12:27:45;21.38;;;15.38;;
25687;SDS011;17407;51.120;3.702;2024-03-08T12:30:18;24.65;;;17.33;;
25687;SDS011;17407;51.120;3.702;2024-03-08T12:33:07;22.10;;;14.25;;
25687;SDS011;17407;51.120;3.702;2024-03-08T12:35:35;24.27;;;16.35;;
25687;SDS011;17407;51.120;3.702;2024-03-08T12:38:02;22.13;;;15.32;;
25687;SDS011;17407;51.120;3.702;2024-03-08T12:40:29;21.20;;;15.65;;
25687;SDS011;17407;51.120;3.702;2024-03-08T12:43:05;21.83;;;14.80;;
25687;SDS011;17407;51.120;3.702;2024-03-08T12:45:31;23.05;;;16.95;;
25687;SDS011;17407;51.120;3.702;2024-03-08T12:47:57;23.77;;;15.98;;
25687;SDS011;17407;51.120;3.702;2024-03-08T12:50:24;23.67;;;16.48;;
25687;SDS011;17407;51.120;3.702;2024-03-08T12:52:50;21.65;;;15.32;;
25687;SDS011;17407;51.120;3.702;2024-03-08T12:55:20;22.60;;;15.63;;
25687;SDS011;17407;51.120;3.702;2024-03-08T12:57:46;21.13;;;14.73;;
25687;SDS011;17407;51.120;3.702;2024-03-08T13:00:14;23.13;;;16.83;;
25687;SDS011;17407;51.120;3.702;2024-03-08T13:02:47;23.45;;;17.80;;
25687;SDS011;17407;51.120;3.702;2024-03-08T13:05:13;22.45;;;15.45;;
25687;SDS011;17407;51.120;3.702;2024-03-08T13:07:42;20.63;;;14.63;;
25687;SDS011;17407;51.120;3.702;2024-03-08T13:10:14;24.48;;;16.13;;
25687;SDS011;17407;51.120;3.702;2024-03-08T13:12:41;18.92;;;15.15;;
25687;SDS011;17407;51.120;3.702;2024-03-08T13:15:10;22.70;;;16.38;;
25687;SDS011;17407;51.120;3.702;2024-03-08T13:17:40;22.92;;;15.82;;
25687;SDS011;17407;51.120;3.702;2024-03-08T13:20:08;21.52;;;15.20;;
25687;SDS011;17407;51.120;3.702;2024-03-08T13:22:34;22.17;;;15.52;;
25687;SDS011;17407;51.120;3.702;2024-03-08T13:25:01;25.30;;;15.43;;
25687;SDS011;17407;51.120;3.702;2024-03-08T13:27:27;20.08;;;15.15;;
25687;SDS011;17407;51.120;3.702;2024-03-08T13:29:53;21.98;;;15.20;;
25687;SDS011;17407;51.120;3.702;2024-03-08T13:32:19;21.67;;;15.88;;
25687;SDS011;17407;51.120;3.702;2024-03-08T13:34:49;24.50;;;17.42;;
25687;SDS011;17407;51.120;3.702;2024-03-08T13:37:16;20.65;;;15.48;;
25687;SDS011;17407;51.120;3.702;2024-03-08T13:39:42;20.58;;;14.98;;
25687;SDS011;17407;51.120;3.702;2024-03-08T13:42:13;22.70;;;16.25;;
25687;SDS011;17407;51.120;3.702;2024-03-08T13:44:47;22.52;;;14.98;;
25687;SDS011;17407;51.120;3.702;2024-03-08T13:47:16;20.00;;;14.23;;
25687;SDS011;17407;51.120;3.702;2024-03-08T13:49:42;18.50;;;13.82;;
25687;SDS011;17407;51.120;3.702;2024-03-08T13:52:09;19.23;;;14.38;;
25687;SDS011;17407;51.120;3.702;2024-03-08T13:54:35;22.25;;;15.65;;
25687;SDS011;17407;51.120;3.702;2024-03-08T13:57:02;20.35;;;15.13;;
25687;SDS011;17407;51.120;3.702;2024-03-08T13:59:32;21.80;;;15.48;;
25687;SDS011;17407;51.120;3.702;2024-03-08T14:01:59;19.77;;;14.75;;
25687;SDS011;17407;51.120;3.702;2024-03-08T14:04:27;20.88;;;13.93;;
25687;SDS011;17407;51.120;3.702;2024-03-08T14:06:55;19.80;;;14.95;;
25687;SDS011;17407;51.120;3.702;2024-03-08T14:09:25;22.30;;;15.88;;
25687;SDS011;17407;51.120;3.702;2024-03-08T14:11:54;20.98;;;16.08;;
25687;SDS011;17407;51.120;3.702;2024-03-08T14:14:21;19.92;;;14.50;;
25687;SDS011;17407;51.120;3.702;2024-03-08T14:16:48;20.40;;;14.75;;
25687;SDS011;17407;51.120;3.702;2024-03-08T14:19:17;20.23;;;13.57;;
25687;SDS011;17407;51.120;3.702;2024-03-08T14:21:44;20.10;;;14.73;;
25687;SDS011;17407;51.120;3.702;2024-03-08T14:24:09;18.95;;;14.40;;
25687;SDS011;17407;51.120;3.702;2024-03-08T14:26:35;22.23;;;15.30;;
25687;SDS011;17407;51.120;3.702;2024-03-08T14:29:03;19.38;;;14.00;;
25687;SDS011;17407;51.120;3.702;2024-03-08T14:31:31;18.73;;;13.48;;
25687;SDS011;17407;51.120;3.702;2024-03-08T14:33:57;20.83;;;13.65;;
25687;SDS011;17407;51.120;3.702;2024-03-08T14:36:23;21.80;;;14.93;;
25687;SDS011;17407;51.120;3.702;2024-03-08T14:38:50;23.27;;;16.35;;
25687;SDS011;17407;51.120;3.702;2024-03-08T14:41:17;21.73;;;15.07;;
25687;SDS011;17407;51.120;3.702;2024-03-08T14:43:43;20.25;;;15.48;;
25687;SDS011;17407;51.120;3.702;2024-03-08T14:46:18;21.80;;;14.45;;
25687;SDS011;17407;51.120;3.702;2024-03-08T14:49:04;19.88;;;13.88;;
25687;SDS011;17407;51.120;3.702;2024-03-08T14:51:29;24.80;;;15.85;;
25687;SDS011;17407;51.120;3.702;2024-03-08T14:53:57;20.05;;;15.48;;
25687;SDS011;17407;51.120;3.702;2024-03-08T14:56:23;22.48;;;16.35;;
25687;SDS011;17407;51.120;3.702;2024-03-08T14:58:52;24.98;;;16.20;;
25687;SDS011;17407;51.120;3.702;2024-03-08T15:01:18;18.98;;;14.15;;
25687;SDS011;17407;51.120;3.702;2024-03-08T15:03:49;19.73;;;14.43;;
25687;SDS011;17407;51.120;3.702;2024-03-08T15:06:15;23.20;;;16.38;;
25687;SDS011;17407;51.120;3.702;2024-03-08T15:08:46;19.23;;;14.00;;
25687;SDS011;17407;51.120;3.702;2024-03-08T15:11:12;24.35;;;15.30;;
25687;SDS011;17407;51.120;3.702;2024-03-08T15:13:50;18.98;;;14.88;;
25687;SDS011;17407;51.120;3.702;2024-03-08T15:16:18;21.38;;;15.10;;
25687;SDS011;17407;51.120;3.702;2024-03-08T15:18:48;19.80;;;14.73;;
25687;SDS011;17407;51.120;3.702;2024-03-08T15:21:16;21.25;;;14.95;;
25687;SDS011;17407;51.120;3.702;2024-03-08T15:23:45;22.23;;;14.70;;
25687;SDS011;17407;51.120;3.702;2024-03-08T15:26:19;19.83;;;14.68;;
25687;SDS011;17407;51.120;3.702;2024-03-08T15:28:45;18.05;;;13.68;;
25687;SDS011;17407;51.120;3.702;2024-03-08T15:31:12;21.83;;;14.50;;
25687;SDS011;17407;51.120;3.702;2024-03-08T15:33:39;23.75;;;16.48;;
25687;SDS011;17407;51.120;3.702;2024-03-08T15:36:15;21.58;;;15.85;;
25687;SDS011;17407;51.120;3.702;2024-03-08T15:38:42;21.83;;;15.48;;
25687;SDS011;17407;51.120;3.702;2024-03-08T15:41:15;19.00;;;14.80;;
25687;SDS011;17407;51.120;3.702;2024-03-08T15:43:42;22.00;;;15.50;;
25687;SDS011;17407;51.120;3.702;2024-03-08T15:46:09;23.13;;;16.10;;
25687;SDS011;17407;51.120;3.702;2024-03-08T15:48:36;19.67;;;13.65;;
25687;SDS011;17407;51.120;3.702;2024-03-08T15:51:05;21.80;;;15.38;;
25687;SDS011;17407;51.120;3.702;2024-03-08T15:53:32;22.40;;;15.77;;
25687;SDS011;17407;51.120;3.702;2024-03-08T15:56:00;20.50;;;15.68;;
25687;SDS011;17407;51.120;3.702;2024-03-08T15:58:27;20.35;;;15.35;;
25687;SDS011;17407;51.120;3.702;2024-03-08T16:00:55;22.38;;;16.92;;
25687;SDS011;17407;51.120;3.702;2024-03-08T16:03:21;22.85;;;16.70;;
25687;SDS011;17407;51.120;3.702;2024-03-08T16:05:47;23.42;;;15.68;;
25687;SDS011;17407;51.120;3.702;2024-03-08T16:08:14;22.48;;;15.52;;
25687;SDS011;17407;51.120;3.702;2024-03-08T16:10:46;22.20;;;16.00;;
25687;SDS011;17407;51.120;3.702;2024-03-08T16:13:19;19.25;;;14.98;;
25687;SDS011;17407;51.120;3.702;2024-03-08T16:15:49;21.20;;;14.93;;
25687;SDS011;17407;51.120;3.702;2024-03-08T16:18:16;27.92;;;18.35;;
25687;SDS011;17407;51.120;3.702;2024-03-08T16:20:46;23.13;;;15.80;;
25687;SDS011;17407;51.120;3.702;2024-03-08T16:23:14;28.55;;;16.63;;
25687;SDS011;17407;51.120;3.702;2024-03-08T16:25:40;21.45;;;15.40;;
25687;SDS011;17407;51.120;3.702;2024-03-08T16:28:09;23.23;;;15.48;;
25687;SDS011;17407;51.120;3.702;2024-03-08T16:30:42;24.42;;;16.38;;
25687;SDS011;17407;51.120;3.702;2024-03-08T16:33:13;20.63;;;15.00;;
25687;SDS011;17407;51.120;3.702;2024-03-08T16:35:39;23.83;;;17.33;;
25687;SDS011;17407;51.120;3.702;2024-03-08T16:38:09;21.52;;;15.65;;
25687;SDS011;17407;51.120;3.702;2024-03-08T16:40:39;21.90;;;16.27;;
25687;SDS011;17407;51.120;3.702;2024-03-08T16:43:05;20.92;;;14.60;;
25687;SDS011;17407;51.120;3.702;2024-03-08T16:45:30;23.65;;;15.18;;
25687;SDS011;17407;51.120;3.702;2024-03-08T16:47:56;23.00;;;15.65;;
25687;SDS011;17407;51.120;3.702;2024-03-08T16:50:22;22.25;;;15.27;;
25687;SDS011;17407;51.120;3.702;2024-03-08T16:52:52;20.67;;;15.68;;
25687;SDS011;17407;51.120;3.702;2024-03-08T16:55:17;21.73;;;15.05;;
25687;SDS011;17407;51.120;3.702;2024-03-08T16:57:45;25.58;;;15.35;;
25687;SDS011;17407;51.120;3.702;2024-03-08T17:00:16;22.80;;;16.00;;
25687;SDS011;17407;51.120;3.702;2024-03-08T17:02:53;25.77;;;16.67;;
25687;SDS011;17407;51.120;3.702;2024-03-08T17:05:19;29.95;;;16.50;;
25687;SDS011;17407;51.120;3.702;2024-03-08T17:07:48;25.48;;;16.60;;
25687;SDS011;17407;51.120;3.702;2024-03-08T17:10:20;23.73;;;15.82;;
25687;SDS011;17407;51.120;3.702;2024-03-08T17:12:48;21.48;;;15.07;;
25687;SDS011;17407;51.120;3.702;2024-03-08T17:15:20;23.33;;;15.52;;
25687;SDS011;17407;51.120;3.702;2024-03-08T17:17:47;25.88;;;17.40;;
25687;SDS011;17407;51.120;3.702;2024-03-08T17:20:14;24.83;;;15.35;;
25687;SDS011;17407;51.120;3.702;2024-03-08T17:22:48;22.73;;;15.20;;
25687;SDS011;17407;51.120;3.702;2024-03-08T17:25:17;21.73;;;15.57;;
25687;SDS011;17407;51.120;3.702;2024-03-08T17:27:50;22.25;;;14.75;;
25687;SDS011;17407;51.120;3.702;2024-03-08T17:32:52;24.85;;;16.58;;
25687;SDS011;17407;51.120;3.702;2024-03-08T17:35:23;24.08;;;16.05;;
25687;SDS011;17407;51.120;3.702;2024-03-08T17:37:50;31.45;;;17.05;;
25687;SDS011;17407;51.120;3.702;2024-03-08T17:40:18;22.98;;;15.75;;
25687;SDS011;17407;51.120;3.702;2024-03-08T17:42:50;22.30;;;15.30;;
25687;SDS011;17407;51.120;3.702;2024-03-08T17:45:21;24.40;;;15.93;;
25687;SDS011;17407;51.120;3.702;2024-03-08T17:47:49;28.40;;;16.15;;
25687;SDS011;17407;51.120;3.702;2024-03-08T17:50:18;23.88;;;16.23;;
25687;SDS011;17407;51.120;3.702;2024-03-08T17:52:45;25.77;;;15.70;;
25687;SDS011;17407;51.120;3.702;2024-03-08T17:55:12;22.73;;;15.48;;
25687;SDS011;17407;51.120;3.702;2024-03-08T17:57:48;23.92;;;14.93;;
25687;SDS011;17407;51.120;3.702;2024-03-08T18:00:17;24.90;;;15.32;;
25687;SDS011;17407;51.120;3.702;2024-03-08T18:02:53;23.52;;;15.18;;
25687;SDS011;17407;51.120;3.702;2024-03-08T18:05:21;25.10;;;15.95;;
25687;SDS011;17407;51.120;3.702;2024-03-08T18:07:55;32.67;;;16.90;;
25687;SDS011;17407;51.120;3.702;2024-03-08T18:10:22;25.20;;;15.90;;
25687;SDS011;17407;51.120;3.702;2024-03-08T18:12:51;25.25;;;15.63;;
25687;SDS011;17407;51.120;3.702;2024-03-08T18:15:20;20.10;;;14.30;;
25687;SDS011;17407;51.120;3.702;2024-03-08T18:17:50;22.77;;;15.20;;
25687;SDS011;17407;51.120;3.702;2024-03-08T18:20:17;23.48;;;15.68;;
25687;SDS011;17407;51.120;3.702;2024-03-08T18:22:46;25.25;;;16.05;;
25687;SDS011;17407;51.120;3.702;2024-03-08T18:25:15;21.63;;;14.85;;
25687;SDS011;17407;51.120;3.702;2024-03-08T18:27:45;24.90;;;15.35;;
25687;SDS011;17407;51.120;3.702;2024-03-08T18:30:11;25.48;;;16.05;;
25687;SDS011;17407;51.120;3.702;2024-03-08T18:32:50;25.65;;;15.43;;
25687;SDS011;17407;51.120;3.702;2024-03-08T18:35:18;27.27;;;16.30;;
25687;SDS011;17407;51.120;3.702;2024-03-08T18:37:46;24.92;;;15.52;;
25687;SDS011;17407;51.120;3.702;2024-03-08T18:40:18;21.30;;;14.80;;
25687;SDS011;17407;51.120;3.702;2024-03-08T18:42:50;25.70;;;16.90;;
25687;SDS011;17407;51.120;3.702;2024-03-08T18:45:19;26.38;;;15.93;;
25687;SDS011;17407;51.120;3.702;2024-03-08T18:47:47;23.98;;;15.20;;
25687;SDS011;17407;51.120;3.702;2024-03-08T18:50:19;22.52;;;15.52;;
25687;SDS011;17407;51.120;3.702;2024-03-08T18:52:46;24.95;;;16.20;;
25687;SDS011;17407;51.120;3.702;2024-03-08T18:55:13;23.55;;;15.93;;
25687;SDS011;17407;51.120;3.702;2024-03-08T18:57:46;23.95;;;15.25;;
25687;SDS011;17407;51.120;3.702;2024-03-08T19:00:19;23.73;;;15.60;;
25687;SDS011;17407;51.120;3.702;2024-03-08T19:02:56;26.73;;;15.45;;
25687;SDS011;17407;51.120;3.702;2024-03-08T19:05:24;22.92;;;15.73;;
25687;SDS011;17407;51.120;3.702;2024-03-08T19:07:52;22.77;;;14.95;;
25687;SDS011;17407;51.120;3.702;2024-03-08T19:10:20;26.88;;;16.08;;
25687;SDS011;17407;51.120;3.702;2024-03-08T19:12:53;25.60;;;15.48;;
25687;SDS011;17407;51.120;3.702;2024-03-08T19:15:27;21.90;;;15.02;;
25687;SDS011;17407;51.120;3.702;2024-03-08T19:17:56;23.40;;;15.27;;
25687;SDS011;17407;51.120;3.702;2024-03-08T19:20:22;27.02;;;16.27;;
25687;SDS011;17407;51.120;3.702;2024-03-08T19:22:51;25.08;;;14.95;;
25687;SDS011;17407;51.120;3.702;2024-03-08T19:25:26;24.38;;;14.95;;
25687;SDS011;17407;51.120;3.702;2024-03-08T19:28:04;29.05;;;18.27;;
25687;SDS011;17407;51.120;3.702;2024-03-08T19:30:31;24.23;;;16.13;;
25687;SDS011;17407;51.120;3.702;2024-03-08T19:33:01;24.77;;;15.55;;
25687;SDS011;17407;51.120;3.702;2024-03-08T19:35:28;23.77;;;15.77;;
25687;SDS011;17407;51.120;3.702;2024-03-08T19:37:56;23.88;;;16.15;;
25687;SDS011;17407;51.120;3.702;2024-03-08T19:40:29;23.00;;;16.23;;
25687;SDS011;17407;51.120;3.702;2024-03-08T19:43:00;24.38;;;14.68;;
25687;SDS011;17407;51.120;3.702;2024-03-08T19:45:27;20.02;;;13.93;;
25687;SDS011;17407;51.120;3.702;2024-03-08T19:47:56;25.40;;;15.90;;
25687;SDS011;17407;51.120;3.702;2024-03-08T19:50:25;24.02;;;15.32;;
25687;SDS011;17407;51.120;3.702;2024-03-08T19:52:53;23.70;;;15.73;;
25687;SDS011;17407;51.120;3.702;2024-03-08T19:55:20;24.27;;;15.52;;
25687;SDS011;17407;51.120;3.702;2024-03-08T19:57:47;24.75;;;15.52;;
25687;SDS011;17407;51.120;3.702;2024-03-08T20:00:16;25.75;;;16.08;;
25687;SDS011;17407;51.120;3.702;2024-03-08T20:02:46;24.70;;;16.55;;
25687;SDS011;17407;51.120;3.702;2024-03-08T20:05:14;27.02;;;16.38;;
25687;SDS011;17407;51.120;3.702;2024-03-08T20:07:44;23.05;;;16.08;;
25687;SDS011;17407;51.120;3.702;2024-03-08T20:10:10;25.42;;;16.13;;
25687;SDS011;17407;51.120;3.702;2024-03-08T20:12:38;26.17;;;15.88;;
25687;SDS011;17407;51.120;3.702;2024-03-08T20:15:08;23.17;;;14.65;;
25687;SDS011;17407;51.120;3.702;2024-03-08T20:17:35;22.38;;;15.00;;
25687;SDS011;17407;51.120;3.702;2024-03-08T20:20:02;27.08;;;16.80;;
25687;SDS011;17407;51.120;3.702;2024-03-08T20:22:32;24.55;;;17.08;;
25687;SDS011;17407;51.120;3.702;2024-03-08T20:24:58;25.88;;;15.05;;
25687;SDS011;17407;51.120;3.702;2024-03-08T20:27:24;27.70;;;16.75;;
25687;SDS011;17407;51.120;3.702;2024-03-08T20:29:52;23.30;;;16.23;;
25687;SDS011;17407;51.120;3.702;2024-03-08T20:32:20;27.63;;;16.63;;
25687;SDS011;17407;51.120;3.702;2024-03-08T20:34:46;25.52;;;15.50;;
25687;SDS011;17407;51.120;3.702;2024-03-08T20:37:12;27.42;;;16.55;;
25687;SDS011;17407;51.120;3.702;2024-03-08T20:39:38;25.65;;;16.50;;
25687;SDS011;17407;51.120;3.702;2024-03-08T20:42:05;25.58;;;16.20;;
25687;SDS011;17407;51.120;3.702;2024-03-08T20:44:31;29.38;;;16.20;;
25687;SDS011;17407;51.120;3.702;2024-03-08T20:46:57;26.05;;;15.57;;
25687;SDS011;17407;51.120;3.702;2024-03-08T20:49:26;26.80;;;16.65;;
25687;SDS011;17407;51.120;3.702;2024-03-08T20:51:51;27.98;;;16.10;;
25687;SDS011;17407;51.120;3.702;2024-03-08T20:54:17;29.17;;;15.77;;
25687;SDS011;17407;51.120;3.702;2024-03-08T20:56:43;22.83;;;15.88;;
25687;SDS011;17407;51.120;3.702;2024-03-08T20:59:09;25.52;;;16.23;;
25687;SDS011;17407;51.120;3.702;2024-03-08T21:01:37;24.52;;;15.73;;
25687;SDS011;17407;51.120;3.702;2024-03-08T21:04:03;26.75;;;16.50;;
25687;SDS011;17407;51.120;3.702;2024-03-08T21:06:30;25.65;;;16.92;;
25687;SDS011;17407;51.120;3.702;2024-03-08T21:08:56;25.35;;;16.38;;
25687;SDS011;17407;51.120;3.702;2024-03-08T21:11:22;26.15;;;17.10;;
25687;SDS011;17407;51.120;3.702;2024-03-08T21:13:50;28.67;;;16.73;;
25687;SDS011;17407;51.120;3.702;2024-03-08T21:16:17;25.02;;;16.70;;
25687;SDS011;17407;51.120;3.702;2024-03-08T21:18:43;26.20;;;16.60;;
25687;SDS011;17407;51.120;3.702;2024-03-08T21:21:09;25.70;;;16.42;;
25687;SDS011;17407;51.120;3.702;2024-03-08T21:23:35;25.60;;;16.15;;
25687;SDS011;17407;51.120;3.702;2024-03-08T21:26:01;27.35;;;17.00;;
25687;SDS011;17407;51.120;3.702;2024-03-08T21:28:27;29.42;;;16.92;;
25687;SDS011;17407;51.120;3.702;2024-03-08T21:30:54;26.17;;;15.65;;
25687;SDS011;17407;51.120;3.702;2024-03-08T21:33:21;24.08;;;16.35;;